^^
Saratoga-Weather Station Historical Data
Daily Summary for August 2, 2021 Units:  English    Metric   Both
Daily Weekly Monthly Yearly Custom
  High: Low: Average:
Temperature: 42.6 °F 36.1 °F 39.7 °F
Dew Point: 40.8 °F 32.9 °F 36.7 °F
Humidity: 94% 81% 89%
Wind Speed: 14.1mph 0mph 4.8mph
Wind Gust: 16mph - -
Wind- - West
Pressure: 29.8 in 29.5 in -
Precipitation: 0.03 in    
Historical Graphs
 
 
Tabular Data for August 2, 2021
Time Temperature Dew Point Pressure Wind Wind Speed Wind Gust Humidity Rainfall Rate (Hourly) solar
00:00 42.3 °F 40.6 °F 29.5 in West 2.9 mph 5 mph 94% 0 in 0 W/m2
00:05 42.4 °F 40.6 °F 29.5 in West 2.9 mph 8 mph 93% 0 in 0 W/m2
00:10 42.4 °F 40.6 °F 29.5 in West 2 mph 5 mph 93% 0 in 0 W/m2
00:15 42.4 °F 40.6 °F 29.5 in West 2.9 mph 4 mph 93% 0 in 0 W/m2
00:20 42.4 °F 40.6 °F 29.5 in WSW 0.9 mph 5 mph 93% 0 in 0 W/m2
00:25 42.4 °F 40.6 °F 29.5 in WNW 2 mph 9 mph 93% 0 in 0 W/m2
00:30 42.4 °F 40.6 °F 29.5 in SW 4.9 mph 7 mph 93% 0 in 0 W/m2
00:35 42.4 °F 40.6 °F 29.5 in West 4 mph 8 mph 93% 0 in 0 W/m2
00:40 42.4 °F 40.6 °F 29.5 in WSW 2.9 mph 5 mph 93% 0 in 0 W/m2
00:45 42.4 °F 40.6 °F 29.5 in WNW 2 mph 3 mph 93% 0 in 0 W/m2
00:50 42.6 °F 40.8 °F 29.5 in West 4 mph 8 mph 93% 0 in 0 W/m2
00:55 42.4 °F 40.6 °F 29.5 in SW 6 mph 6 mph 93% 0 in 0 W/m2
01:00 42.6 °F 40.8 °F 29.5 in WSW 8 mph 8 mph 93% 0 in 0 W/m2
01:05 42.6 °F 40.8 °F 29.5 in West 6 mph 7 mph 93% 0 in 0 W/m2
01:10 42.6 °F 40.8 °F 29.5 in NW 2.9 mph 3 mph 93% 0 in 0 W/m2
01:15 42.4 °F 40.6 °F 29.5 in WSW 2.9 mph 9 mph 93% 0 in 0 W/m2
01:20 42.4 °F 40.6 °F 29.5 in NW 2 mph 3 mph 93% 0 in 0 W/m2
01:25 42.4 °F 40.6 °F 29.5 in WNW 6.9 mph 9 mph 93% 0 in 0 W/m2
01:30 42.4 °F 40.6 °F 29.5 in West 2 mph 4 mph 93% 0 in 0 W/m2
01:35 42.4 °F 40.6 °F 29.5 in West 2.9 mph 6 mph 93% 0 in 0 W/m2
01:40 42.4 °F 40.6 °F 29.5 in West 2.9 mph 11 mph 93% 0 in 0 W/m2
01:45 42.4 °F 40.6 °F 29.5 in WSW 2.9 mph 5 mph 93% 0 in 0 W/m2
01:50 42.4 °F 40.6 °F 29.5 in WNW 2 mph 9 mph 93% 0 in 0 W/m2
01:55 42.4 °F 40.6 °F 29.5 in WSW 4 mph 10 mph 93% 0 in 0 W/m2
02:00 42.4 °F 40.6 °F 29.5 in West 2.9 mph 4 mph 93% 0 in 0 W/m2
02:05 42.4 °F 40.6 °F 29.5 in WSW 2 mph 10 mph 93% 0 in 0 W/m2
02:10 42.4 °F 40.6 °F 29.5 in West 2.9 mph 7 mph 93% 0 in 0 W/m2
02:15 42.3 °F 40.5 °F 29.5 in West 12 mph 12 mph 93% 0 in 0 W/m2
02:20 42.3 °F 40.5 °F 29.5 in West 0.9 mph 8 mph 93% 0 in 0 W/m2
02:25 42.3 °F 40.5 °F 29.5 in West 2.9 mph 6 mph 93% 0 in 0 W/m2
02:30 42.3 °F 40.5 °F 29.5 in West 2.9 mph 7 mph 93% 0 in 0 W/m2
02:35 42.3 °F 40.5 °F 29.5 in SW 4 mph 4 mph 93% 0 in 0 W/m2
02:40 42.3 °F 40.5 °F 29.5 in WNW 4 mph 10 mph 93% 0 in 0 W/m2
02:45 42.1 °F 40.3 °F 29.5 in West 0.9 mph 4 mph 93% 0 in 0 W/m2
02:50 42.3 °F 40.5 °F 29.5 in North 2 mph 10 mph 93% 0 in 0 W/m2
02:55 42.1 °F 40.3 °F 29.5 in WNW 4 mph 4 mph 93% 0 in 0 W/m2
03:00 42.1 °F 40.3 °F 29.5 in WSW 6 mph 9 mph 93% 0 in 0 W/m2
03:05 42.1 °F 40.3 °F 29.5 in West 6 mph 9 mph 93% 0 in 0 W/m2
03:10 42.1 °F 39.9 °F 29.5 in WSW 8.1 mph 9 mph 92% 0 in 0 W/m2
03:15 42.1 °F 39.9 °F 29.5 in WNW 2.9 mph 12 mph 92% 0 in 0 W/m2
03:20 42.3 °F 40.1 °F 29.5 in NW 2.9 mph 4 mph 92% 0 in 0 W/m2
03:25 42.3 °F 40.1 °F 29.5 in WNW 2.9 mph 12 mph 92% 0 in 0 W/m2
03:30 42.3 °F 40.1 °F 29.5 in WSW 4 mph 7 mph 92% 0 in 0 W/m2
03:35 42.3 °F 40.1 °F 29.5 in West 6 mph 10 mph 92% 0 in 0 W/m2
03:40 42.1 °F 39.9 °F 29.5 in WSW 4.9 mph 12 mph 92% 0 in 0 W/m2
03:45 42.1 °F 39.9 °F 29.5 in WNW 2.9 mph 13 mph 92% 0 in 0 W/m2
03:50 41.9 °F 39.7 °F 29.5 in West 2.9 mph 6 mph 92% 0 in 0 W/m2
03:55 41.7 °F 39.6 °F 29.5 in NW 4.9 mph 13 mph 92% 0 in 0 W/m2
04:01 41.7 °F 39.6 °F 29.5 in West 6 mph 8 mph 92% 0 in 0 W/m2
04:06 41.7 °F 39.6 °F 29.5 in WNW 8.9 mph 9 mph 92% 0 in 0 W/m2
04:11 41.5 °F 39.4 °F 29.5 in WSW 2.9 mph 3 mph 92% 0 in 0 W/m2
04:16 41.5 °F 39.4 °F 29.5 in West 4 mph 7 mph 92% 0 in 0 W/m2
04:21 41.5 °F 39.4 °F 29.5 in West 4 mph 9 mph 92% 0 in 0 W/m2
04:26 41.5 °F 39.4 °F 29.5 in WSW 0.9 mph 11 mph 92% 0 in 0 W/m2
04:31 41.5 °F 39.2 °F 29.5 in West 4 mph 6 mph 91% 0 in 0 W/m2
04:36 41.5 °F 39.2 °F 29.5 in West 0.9 mph 9 mph 91% 0 in 0 W/m2
04:41 41.5 °F 39.2 °F 29.5 in WSW 2.9 mph 5 mph 91% 0 in 0 W/m2
04:46 41.5 °F 39.2 °F 29.5 in WNW 2 mph 8 mph 91% 0 in 0 W/m2
04:51 41.4 °F 39.2 °F 29.5 in West 4 mph 4 mph 92% 0 in 0 W/m2
04:56 41.4 °F 39.2 °F 29.5 in WNW 0.9 mph 8 mph 92% 0 in 0 W/m2
05:01 41.4 °F 39.2 °F 29.5 in NW 0.9 mph 4 mph 92% 0 in 0 W/m2
05:06 41.4 °F 39.2 °F 29.5 in West 6 mph 6 mph 92% 0 in 0 W/m2
05:11 41.2 °F 39 °F 29.5 in WSW 8.9 mph 9 mph 92% 0 in 0 W/m2
05:16 41.2 °F 39.4 °F 29.5 in West 2.9 mph 4 mph 93% 0 in 0 W/m2
05:21 41.2 °F 39.4 °F 29.5 in WSW 2 mph 6 mph 93% 0 in 0 W/m2
05:26 41.2 °F 39.4 °F 29.5 in West 2 mph 10 mph 93% 0 in 0 W/m2
05:31 41.2 °F 39.4 °F 29.5 in West 2.9 mph 7 mph 93% 0 in 0 W/m2
05:36 41 °F 39.2 °F 29.5 in WNW 2 mph 10 mph 93% 0 in 0 W/m2
05:41 41 °F 39.2 °F 29.5 in WSW 4 mph 6 mph 93% 0 in 0 W/m2
05:46 41 °F 39.2 °F 29.5 in West 2.9 mph 7 mph 93% 0 in 0 W/m2
05:51 40.8 °F 39 °F 29.5 in WSW 4 mph 10 mph 93% 0 in 0 W/m2
05:56 41 °F 39.2 °F 29.5 in West 10.1 mph 10 mph 93% 0 in 0 W/m2
06:01 41 °F 38.8 °F 29.5 in SW 4.9 mph 6 mph 92% 0 in 0 W/m2
06:06 41 °F 39.2 °F 29.5 in West 10 mph 10 mph 93% 0 in 0 W/m2
06:11 41 °F 38.8 °F 29.5 in West 6 mph 7 mph 92% 0 in 0 W/m2
06:16 41 °F 38.8 °F 29.5 in North 4 mph 8 mph 92% 0 in 0 W/m2
06:21 41 °F 38.8 °F 29.5 in WNW 2.9 mph 4 mph 92% 0 in 0 W/m2
06:26 41 °F 38.8 °F 29.5 in WSW 6.9 mph 10 mph 92% 0 in 0 W/m2
06:31 40.8 °F 38.7 °F 29.5 in West 4 mph 6 mph 92% 0 in 0 W/m2
06:36 40.8 °F 38.7 °F 29.5 in NW 2.9 mph 4 mph 92% 0.01 in 0 W/m2
06:41 40.6 °F 38.8 °F 29.5 in West 2 mph 7 mph 93% 0.02 in 0 W/m2
06:46 40.3 °F 38.1 °F 29.5 in West 8.1 mph 11 mph 92% 0.02 in 0 W/m2
06:51 40.3 °F 38.1 °F 29.5 in West 2.9 mph 8 mph 92% 0.02 in 0 W/m2
06:56 40.3 °F 38.1 °F 29.5 in WNW 4 mph 11 mph 92% 0.02 in 0 W/m2
07:01 40.3 °F 38.1 °F 29.5 in West 6 mph 8 mph 92% 0.02 in 0 W/m2
07:11 40.3 °F 38.1 °F 29.5 in West 8.1 mph 12 mph 92% 0.02 in 0 W/m2
07:16 40.3 °F 38.1 °F 29.5 in WNW 4.9 mph 9 mph 92% 0.02 in 0 W/m2
07:21 40.3 °F 38.1 °F 29.5 in West 2.9 mph 12 mph 92% 0.02 in 0 W/m2
07:26 40.1 °F 37.9 °F 29.5 in West 4 mph 7 mph 92% 0.02 in 0 W/m2
07:32 39.9 °F 37.8 °F 29.5 in WSW 2 mph 11 mph 92% 0.02 in 0 W/m2
07:37 39.9 °F 37.8 °F 29.5 in WNW 2.9 mph 12 mph 92% 0.02 in 0 W/m2
07:42 39.9 °F 37.8 °F 29.5 in SW 8.1 mph 9 mph 92% 0.01 in 0 W/m2
07:47 39.7 °F 37.4 °F 29.6 in West 2.9 mph 9 mph 91% 0.01 in 0 W/m2
07:52 39.6 °F 37.2 °F 29.6 in West 8.9 mph 11 mph 91% 0.01 in 0 W/m2
07:57 39.6 °F 37.2 °F 29.6 in West 2.9 mph 8 mph 91% 0.01 in 0 W/m2
08:02 39.4 °F 37 °F 29.6 in West 8.9 mph 10 mph 91% 0.01 in 0 W/m2
08:07 39.4 °F 37 °F 29.6 in WSW 4.9 mph 10 mph 91% 0.01 in 0 W/m2
08:12 39.4 °F 37 °F 29.6 in West 4 mph 16 mph 91% 0.01 in 0 W/m2
08:17 39.4 °F 37 °F 29.6 in West 2.9 mph 7 mph 91% 0.01 in 0 W/m2
08:22 39.4 °F 36.7 °F 29.6 in West 2.9 mph 10 mph 90% 0.01 in 0 W/m2
08:27 39.4 °F 36.7 °F 29.6 in West 6 mph 10 mph 90% 0.01 in 5 W/m2
08:32 39.4 °F 36.7 °F 29.6 in NW 6 mph 9 mph 90% 0.01 in 7 W/m2
08:37 39.2 °F 36.5 °F 29.6 in West 6.9 mph 11 mph 90% 0.01 in 7 W/m2
08:42 39.2 °F 36.3 °F 29.6 in West 8.9 mph 13 mph 89% 0.01 in 11 W/m2
08:47 39.2 °F 36 °F 29.6 in WSW 14.1 mph 16 mph 88% 0 in 11 W/m2
08:52 39.2 °F 35.6 °F 29.6 in West 6.9 mph 10 mph 87% 0 in 14 W/m2
08:57 39 °F 35.4 °F 29.6 in West 8.9 mph 14 mph 87% 0 in 14 W/m2
09:02 39 °F 35.2 °F 29.6 in West 10.1 mph 13 mph 86% 0 in 18 W/m2
09:07 39 °F 35.2 °F 29.6 in WNW 4 mph 13 mph 86% 0 in 19 W/m2
09:12 39 °F 35.2 °F 29.6 in West 6.9 mph 9 mph 86% 0 in 19 W/m2
09:17 39 °F 35.4 °F 29.6 in West 6.9 mph 10 mph 87% 0 in 19 W/m2
09:22 38.8 °F 35.6 °F 29.6 in WSW 4 mph 7 mph 88% 0 in 16 W/m2
09:27 38.7 °F 35.4 °F 29.6 in West 4 mph 8 mph 88% 0 in 18 W/m2
09:32 38.7 °F 35.8 °F 29.6 in West 6.9 mph 8 mph 89% 0 in 16 W/m2
09:37 38.7 °F 35.8 °F 29.6 in West 10.1 mph 14 mph 89% 0 in 14 W/m2
09:42 38.7 °F 35.8 °F 29.6 in SW 6.9 mph 15 mph 89% 0 in 14 W/m2
09:47 38.5 °F 35.6 °F 29.6 in West 11 mph 11 mph 89% 0 in 16 W/m2
09:52 38.5 °F 35.2 °F 29.6 in WSW 10.1 mph 15 mph 88% 0 in 19 W/m2
09:57 38.5 °F 35.2 °F 29.6 in WNW 2.9 mph 11 mph 88% 0 in 19 W/m2
10:02 38.5 °F 35.2 °F 29.6 in West 6.9 mph 14 mph 88% 0 in 32 W/m2
10:07 38.5 °F 35.2 °F 29.6 in NW 4 mph 12 mph 88% 0 in 42 W/m2
10:12 38.5 °F 35.6 °F 29.6 in WSW 13 mph 13 mph 89% 0 in 40 W/m2
10:17 38.7 °F 35.4 °F 29.6 in WNW 8.1 mph 11 mph 88% 0 in 49 W/m2
10:22 38.5 °F 34.9 °F 29.6 in WNW 4 mph 14 mph 87% 0 in 44 W/m2
10:27 38.7 °F 35.1 °F 29.6 in WNW 11 mph 13 mph 87% 0 in 37 W/m2
10:32 38.5 °F 34.7 °F 29.6 in WNW 10.1 mph 12 mph 86% 0 in 33 W/m2
10:37 38.5 °F 34.7 °F 29.6 in North 4 mph 14 mph 86% 0 in 35 W/m2
10:42 38.7 °F 34.9 °F 29.6 in West 8.1 mph 14 mph 86% 0 in 46 W/m2
10:47 38.7 °F 34.9 °F 29.6 in NW 6 mph 15 mph 86% 0 in 100 W/m2
10:52 39 °F 35.2 °F 29.6 in West 12.1 mph 12 mph 86% 0 in 179 W/m2
10:57 39.4 °F 35.6 °F 29.6 in NNW 6 mph 14 mph 86% 0 in 211 W/m2
11:02 39.6 °F 35.8 °F 29.6 in WNW 4 mph 12 mph 86% 0 in 158 W/m2
11:07 39.6 °F 35.8 °F 29.6 in NNW 4 mph 14 mph 86% 0 in 144 W/m2
11:12 39.4 °F 35.6 °F 29.6 in NW 8.1 mph 16 mph 86% 0 in 118 W/m2
11:17 39 °F 35.2 °F 29.6 in WNW 8.9 mph 12 mph 86% 0 in 118 W/m2
11:22 38.8 °F 35.2 °F 29.6 in West 4 mph 11 mph 87% 0 in 135 W/m2
11:27 38.7 °F 35.4 °F 29.6 in WNW 8.1 mph 10 mph 88% 0 in 132 W/m2
11:32 38.7 °F 35.4 °F 29.6 in WNW 6 mph 15 mph 88% 0 in 120 W/m2
11:37 38.7 °F 35.4 °F 29.6 in WNW 8.1 mph 9 mph 88% 0 in 79 W/m2
11:42 38.7 °F 35.8 °F 29.6 in WSW 4.9 mph 12 mph 89% 0 in 97 W/m2
11:47 38.7 °F 35.4 °F 29.6 in WNW 2 mph 9 mph 88% 0 in 128 W/m2
11:52 38.7 °F 35.8 °F 29.6 in NW 2.9 mph 8 mph 89% 0 in 135 W/m2
11:57 38.7 °F 35.4 °F 29.6 in NW 0.9 mph 8 mph 88% 0 in 135 W/m2
12:02 38.7 °F 35.1 °F 29.6 in WSW 4 mph 13 mph 87% 0 in 104 W/m2
12:07 38.8 °F 35.2 °F 29.6 in NW 0.9 mph 9 mph 87% 0 in 63 W/m2
12:12 38.8 °F 35.6 °F 29.6 in WNW 2 mph 6 mph 88% 0 in 58 W/m2
12:17 38.8 °F 35.2 °F 29.6 in WNW 4.9 mph 9 mph 87% 0 in 65 W/m2
12:22 38.8 °F 35.2 °F 29.6 in West 8.9 mph 11 mph 87% 0 in 88 W/m2
12:27 38.7 °F 35.1 °F 29.6 in WNW 4 mph 10 mph 87% 0 in 88 W/m2
12:32 38.7 °F 34.9 °F 29.6 in West 8.9 mph 13 mph 86% 0 in 93 W/m2
12:37 38.5 °F 34.7 °F 29.6 in WNW 2.9 mph 9 mph 86% 0 in 79 W/m2
12:42 38.3 °F 34.5 °F 29.6 in West 2.9 mph 13 mph 86% 0 in 97 W/m2
12:47 38.3 °F 34.7 °F 29.6 in WNW 6.9 mph 9 mph 87% 0 in 98 W/m2
12:52 38.3 °F 34.7 °F 29.6 in WNW 6.9 mph 8 mph 87% 0 in 105 W/m2
12:57 38.5 °F 34.9 °F 29.6 in WNW 4.9 mph 8 mph 87% 0 in 127 W/m2
13:02 38.5 °F 34.9 °F 29.6 in West 6.9 mph 10 mph 87% 0 in 107 W/m2
13:07 38.3 °F 34.7 °F 29.6 in WSW 6.9 mph 11 mph 87% 0 in 109 W/m2
13:12 38.1 °F 34.5 °F 29.6 in WNW 2.9 mph 7 mph 87% 0 in 77 W/m2
13:17 38.3 °F 34.7 °F 29.6 in West 4 mph 7 mph 87% 0 in 97 W/m2
13:22 38.5 °F 34.9 °F 29.6 in West 6.9 mph 7 mph 87% 0 in 79 W/m2
13:27 38.5 °F 34.3 °F 29.6 in West 6 mph 9 mph 85% 0 in 54 W/m2
13:32 38.5 °F 34.3 °F 29.6 in West 2.9 mph 7 mph 85% 0 in 58 W/m2
13:37 38.5 °F 34.2 °F 29.6 in West 2.9 mph 11 mph 84% 0 in 54 W/m2
13:42 38.5 °F 33.8 °F 29.6 in WNW 4 mph 7 mph 83% 0 in 86 W/m2
13:47 38.5 °F 33.8 °F 29.6 in NNW 8.1 mph 14 mph 83% 0 in 114 W/m2
13:52 38.7 °F 33.3 °F 29.6 in WNW 6.9 mph 9 mph 81% 0 in 134 W/m2
13:57 38.7 °F 34 °F 29.6 in West 2.9 mph 9 mph 83% 0 in 90 W/m2
14:02 38.7 °F 33.3 °F 29.6 in West 6.9 mph 15 mph 81% 0 in 69 W/m2
14:07 38.7 °F 33.6 °F 29.6 in WNW 4 mph 8 mph 82% 0 in 120 W/m2
14:12 38.5 °F 33.8 °F 29.6 in WSW 8.1 mph 13 mph 83% 0 in 139 W/m2
14:17 38.5 °F 33.8 °F 29.6 in NW 4.9 mph 11 mph 83% 0 in 142 W/m2
14:22 38.5 °F 33.8 °F 29.6 in NW 4 mph 11 mph 83% 0 in 104 W/m2
14:27 38.3 °F 33.6 °F 29.6 in West 8.1 mph 10 mph 83% 0 in 46 W/m2
14:32 38.3 °F 33.6 °F 29.6 in WNW 4.9 mph 7 mph 83% 0 in 74 W/m2
14:37 38.3 °F 33.6 °F 29.6 in WSW 2.9 mph 9 mph 83% 0 in 67 W/m2
14:42 38.3 °F 33.3 °F 29.6 in West 4 mph 10 mph 82% 0 in 46 W/m2
14:47 38.3 °F 33.3 °F 29.6 in WSW 6.9 mph 13 mph 82% 0 in 49 W/m2
14:52 38.3 °F 32.9 °F 29.7 in WNW 2.9 mph 12 mph 81% 0 in 32 W/m2
14:57 38.3 °F 33.3 °F 29.7 in WNW 4 mph 13 mph 82% 0 in 21 W/m2
15:02 38.1 °F 33.1 °F 29.7 in West 8.1 mph 13 mph 82% 0 in 39 W/m2
15:07 38.3 °F 33.3 °F 29.7 in WNW 6.9 mph 12 mph 82% 0 in 37 W/m2
15:12 38.1 °F 33.1 °F 29.7 in West 8.9 mph 13 mph 82% 0 in 23 W/m2
15:17 38.1 °F 33.4 °F 29.7 in WNW 6.9 mph 10 mph 83% 0 in 21 W/m2
15:22 38.1 °F 33.4 °F 29.7 in WNW 4 mph 12 mph 83% 0 in 37 W/m2
15:27 38.1 °F 33.4 °F 29.7 in WSW 6.9 mph 10 mph 83% 0 in 28 W/m2
15:32 38.1 °F 33.4 °F 29.7 in West 4 mph 9 mph 83% 0 in 21 W/m2
15:37 38.1 °F 33.4 °F 29.7 in NNW 6 mph 8 mph 83% 0 in 18 W/m2
15:42 38.1 °F 33.4 °F 29.7 in WNW 2.9 mph 4 mph 83% 0 in 30 W/m2
15:47 38.1 °F 33.4 °F 29.7 in West 6 mph 10 mph 83% 0 in 35 W/m2
15:52 38.1 °F 33.4 °F 29.7 in SW 2 mph 7 mph 83% 0 in 33 W/m2
15:57 38.1 °F 33.8 °F 29.7 in WNW 2.9 mph 14 mph 84% 0 in 21 W/m2
16:02 38.1 °F 33.8 °F 29.7 in WSW 6 mph 6 mph 84% 0 in 19 W/m2
16:07 38.1 °F 33.8 °F 29.7 in West 14 mph 14 mph 84% 0 in 18 W/m2
16:12 38.1 °F 33.8 °F 29.7 in NW 4 mph 9 mph 84% 0 in 14 W/m2
16:17 38.1 °F 33.8 °F 29.7 in West 6.9 mph 10 mph 84% 0 in 21 W/m2
16:22 38.1 °F 33.8 °F 29.7 in West 6 mph 10 mph 84% 0 in 11 W/m2
16:27 37.9 °F 33.6 °F 29.7 in WNW 6.9 mph 10 mph 84% 0 in 5 W/m2
16:32 37.9 °F 33.8 °F 29.7 in West 6 mph 11 mph 85% 0 in 5 W/m2
16:37 37.8 °F 33.6 °F 29.7 in NW 2.9 mph 11 mph 85% 0 in 0 W/m2
16:42 37.8 °F 33.6 °F 29.7 in West 2.9 mph 8 mph 85% 0 in 0 W/m2
16:47 37.8 °F 33.6 °F 29.7 in West 6.9 mph 15 mph 85% 0 in 0 W/m2
16:52 37.9 °F 33.8 °F 29.7 in West 8.9 mph 9 mph 85% 0 in 0 W/m2
16:57 37.9 °F 33.8 °F 29.7 in WSW 4.9 mph 8 mph 85% 0 in 0 W/m2
17:02 37.9 °F 33.8 °F 29.7 in NW 4 mph 11 mph 85% 0 in 0 W/m2
17:07 37.9 °F 33.8 °F 29.7 in WNW 2 mph 5 mph 85% 0 in 0 W/m2
17:12 37.9 °F 33.8 °F 29.7 in West 6 mph 6 mph 85% 0 in 0 W/m2
17:17 37.8 °F 34 °F 29.7 in West 2.9 mph 6 mph 86% 0 in 0 W/m2
17:22 37.8 °F 34 °F 29.7 in WNW 4 mph 9 mph 86% 0 in 0 W/m2
17:27 37.8 °F 34 °F 29.7 in NW 2 mph 5 mph 86% 0 in 0 W/m2
17:32 37.8 °F 34 °F 29.7 in WNW 0.9 mph 8 mph 86% 0 in 0 W/m2
17:37 37.8 °F 34.2 °F 29.7 in WSW 4 mph 4 mph 87% 0 in 0 W/m2
17:42 37.6 °F 34 °F 29.7 in West 6 mph 9 mph 87% 0 in 0 W/m2
17:47 37.6 °F 34 °F 29.7 in West 4 mph 4 mph 87% 0 in 0 W/m2
17:52 37.4 °F 34.2 °F 29.7 in West 2.9 mph 9 mph 88% 0 in 0 W/m2
17:57 37.2 °F 34 °F 29.7 in NW 4 mph 7 mph 88% 0 in 0 W/m2
18:02 37.2 °F 34 °F 29.7 in West 2.9 mph 5 mph 88% 0 in 0 W/m2
18:07 37.2 °F 34.3 °F 29.7 in Calm   3 mph 89% 0 in 0 W/m2
18:13 37 °F 34.2 °F 29.7 in WSW 2 mph 3 mph 89% 0 in 0 W/m2
18:18 37 °F 34.2 °F 29.8 in WNW 2.9 mph 3 mph 89% 0 in 0 W/m2
18:23 37 °F 34.2 °F 29.7 in WSW 0.9 mph 4 mph 89% 0 in 0 W/m2
18:28 36.9 °F 33.6 °F 29.8 in WNW 2.9 mph 6 mph 88% 0 in 0 W/m2
18:33 36.7 °F 33.4 °F 29.8 in West 2 mph 6 mph 88% 0 in 0 W/m2
18:38 36.5 °F 33.1 °F 29.8 in West 6 mph 7 mph 87% 0 in 0 W/m2
18:43 36.3 °F 32.9 °F 29.8 in West 4 mph 8 mph 87% 0 in 0 W/m2
18:48 36.3 °F 32.9 °F 29.8 in WSW 2 mph 7 mph 87% 0 in 0 W/m2
18:53 36.1 °F 32.9 °F 29.8 in WNW 4 mph 4 mph 88% 0 in 0 W/m2
Juneau County Weather
Compliments of Weather Underground - 2 mb